Terminal Aerodrome Forecast
Issued by NWS Tulsa, OK

Home | Current Version | Previous Version | Text Only | Print | Product List | Glossary On
Versions: 1 2 3 4 5 6 7 8 9 10 11 12 13 14 15 16 17
000
FTUS44 KTSA 281100
TAFFSM
TAF
KFSM 281140Z 2812/2912 06005KT P6SM BKN100
     FM281400 08005KT P6SM VCTS SCT050 BKN100CB
     FM281600 12007KT 5SM TSRA SCT030 OVC050CB
      TEMPO 2816/2819 VRB15G35KT 2SM TSRA OVC030CB
     FM282000 16006KT P6SM SCT050 OVC100
     FM290400 12008KT P6SM OVC100 PROB30 2904/2908 4SM TSRA BKN050CB
     FM290800 07007KT P6SM TSRA OVC050CB=

USA.gov is the U.S. government's official web portal to all federal, state and local government web resources and services.